createdAt,value
2019-01-11T00:00:41.602Z,27.87
2019-01-11T00:03:08.179Z,33.27
2019-01-11T00:05:34.679Z,24.67
2019-01-11T00:08:01.271Z,27.87
2019-01-11T00:10:27.852Z,26.67
2019-01-11T00:12:54.490Z,29.07
2019-01-11T00:15:21.006Z,19.83
2019-01-11T00:17:47.730Z,17.57
2019-01-11T00:20:14.519Z,19.50
2019-01-11T00:22:41.136Z,19.33
2019-01-11T00:25:07.934Z,17.57
2019-01-11T00:27:34.539Z,17.77
2019-01-11T00:30:01.335Z,17.93
2019-01-11T00:32:27.795Z,19.17
2019-01-11T00:34:56.112Z,18.63
2019-01-11T00:37:22.627Z,16.30
2019-01-11T00:39:49.212Z,17.37
2019-01-11T00:42:15.736Z,17.20
2019-01-11T00:44:42.365Z,18.10
2019-01-11T00:47:08.910Z,17.87
2019-01-11T00:49:35.527Z,16.13
2019-01-11T00:52:02.326Z,18.83
2019-01-11T00:54:28.824Z,16.63
2019-01-11T00:56:55.446Z,18.10
2019-01-11T00:59:21.765Z,13.73
2019-01-11T01:01:48.462Z,16.30
2019-01-11T01:04:14.979Z,16.70
2019-01-11T01:06:41.381Z,17.17
2019-01-11T01:09:08.597Z,16.87
2019-01-11T01:11:35.385Z,12.70
2019-01-11T01:14:02.013Z,18.33
2019-01-11T01:16:28.556Z,12.43
2019-01-11T01:18:55.199Z,14.47
2019-01-11T01:21:21.835Z,12.43
2019-01-11T01:23:48.422Z,10.37
2019-01-11T01:26:14.986Z,12.93
2019-01-11T01:28:41.546Z,10.93
2019-01-11T01:31:08.126Z,13.80
2019-01-11T01:33:34.990Z,11.40
2019-01-11T01:36:01.372Z,9.60
2019-01-11T01:38:27.911Z,13.57
2019-01-11T01:40:54.300Z,9.27
2019-01-11T01:43:20.810Z,8.03
2019-01-11T01:45:47.426Z,11.30
2019-01-11T01:48:13.865Z,7.23
2019-01-11T01:50:40.527Z,6.50
2019-01-11T01:53:08.476Z,7.87
2019-01-11T01:55:35.003Z,7.00
2019-01-11T01:58:02.721Z,5.90
2019-01-11T02:00:29.450Z,6.97
2019-01-11T02:02:56.071Z,7.80
2019-01-11T02:05:22.638Z,5.73
2019-01-11T02:07:49.278Z,6.03
2019-01-11T02:10:15.883Z,5.20
2019-01-11T02:12:42.397Z,6.53
2019-01-11T02:15:10.367Z,5.17
2019-01-11T02:17:37.074Z,5.17
2019-01-11T02:20:08.894Z,7.40
2019-01-11T02:22:35.386Z,5.07
2019-01-11T02:25:02.602Z,8.37
2019-01-11T02:27:29.018Z,5.10
2019-01-11T02:29:55.551Z,6.67
2019-01-11T02:32:21.931Z,6.93
2019-01-11T02:34:48.262Z,6.23
2019-01-11T02:37:14.759Z,6.20
2019-01-11T02:39:41.198Z,8.30
2019-01-11T02:42:07.677Z,8.10
2019-01-11T02:44:34.354Z,8.13
2019-01-11T02:47:00.908Z,5.97
2019-01-11T02:49:27.301Z,6.23
2019-01-11T02:51:53.802Z,7.27
2019-01-11T02:54:20.236Z,8.43
2019-01-11T02:56:46.560Z,7.40
2019-01-11T02:59:13.062Z,7.80
2019-01-11T03:01:39.461Z,7.63
2019-01-11T03:04:06.092Z,7.80
2019-01-11T03:06:32.620Z,11.17
2019-01-11T03:08:59.030Z,7.53
2019-01-11T03:11:25.523Z,7.77
2019-01-11T03:13:51.997Z,8.70
2019-01-11T03:16:18.497Z,8.93
2019-01-11T03:18:46.109Z,8.60
2019-01-11T03:21:12.738Z,9.13
2019-01-11T03:23:39.332Z,9.30
2019-01-11T03:26:05.737Z,9.40
2019-01-11T03:28:32.028Z,9.80
2019-01-11T03:31:00.503Z,9.87
2019-01-11T03:33:26.992Z,12.87
2019-01-11T03:35:53.401Z,10.07
2019-01-11T03:38:20.007Z,12.80
2019-01-11T03:40:46.518Z,10.50
2019-01-11T03:43:13.032Z,11.27
2019-01-11T03:45:39.658Z,11.27
2019-01-11T03:48:06.261Z,11.60
2019-01-11T03:50:32.872Z,13.70
2019-01-11T03:52:59.329Z,13.70
2019-01-11T03:55:25.735Z,12.93
2019-01-11T03:57:56.415Z,12.63
2019-01-11T04:00:23.142Z,12.50
2019-01-11T04:02:49.810Z,12.77
2019-01-11T04:05:16.741Z,22.83
2019-01-11T04:07:43.246Z,13.10
2019-01-11T04:10:16.067Z,11.97
2019-01-11T04:12:42.676Z,12.00
2019-01-11T04:15:12.466Z,12.47
2019-01-11T04:17:39.121Z,12.47
2019-01-11T04:20:11.062Z,12.33
2019-01-11T04:22:38.135Z,12.67
2019-01-11T04:25:05.761Z,12.33
2019-01-11T04:27:32.428Z,12.53
2019-01-11T04:29:59.057Z,12.47
2019-01-11T04:32:25.538Z,12.23
2019-01-11T04:34:52.022Z,13.30
2019-01-11T04:37:18.536Z,11.87
2019-01-11T04:39:45.164Z,12.33
2019-01-11T04:42:11.665Z,13.83
2019-01-11T04:44:38.018Z,12.47
2019-01-11T04:47:04.584Z,12.43
2019-01-11T04:49:31.006Z,14.43
2019-01-11T04:51:57.427Z,13.30
2019-01-11T04:54:23.815Z,12.33
2019-01-11T04:56:50.333Z,12.23
2019-01-11T04:59:16.685Z,10.23
2019-01-11T05:01:43.307Z,11.10
2019-01-11T05:04:09.588Z,10.83
2019-01-11T05:06:35.992Z,11.10
2019-01-11T05:09:05.418Z,11.90
2019-01-11T05:11:32.050Z,12.97
2019-01-11T05:13:58.457Z,11.67
2019-01-11T05:16:25.081Z,12.90
2019-01-11T05:18:51.515Z,11.60
2019-01-11T05:21:18.014Z,11.90
2019-01-11T05:23:44.385Z,13.47
2019-01-11T05:26:10.920Z,13.30
2019-01-11T05:28:37.400Z,16.30
2019-01-11T05:31:03.977Z,13.27
2019-01-11T05:33:30.461Z,13.83
2019-01-11T05:35:57.130Z,13.90
2019-01-11T05:38:23.616Z,13.43
2019-01-11T05:40:50.046Z,13.83
2019-01-11T05:43:16.548Z,13.63
2019-01-11T05:45:43.026Z,14.73
2019-01-11T05:48:09.666Z,13.10
2019-01-11T05:50:36.301Z,15.03
2019-01-11T05:53:03.140Z,15.77
2019-01-11T05:55:45.606Z,16.20
2019-01-11T05:58:23.203Z,16.90
2019-01-11T06:00:50.788Z,19.40
2019-01-11T06:03:17.193Z,16.43
2019-01-11T06:05:43.801Z,16.60
2019-01-11T06:08:12.111Z,16.53
2019-01-11T06:10:38.696Z,18.63
2019-01-11T06:13:05.456Z,20.17
2019-01-11T06:15:31.963Z,21.37
2019-01-11T06:17:58.377Z,19.47
2019-01-11T06:20:30.241Z,19.13
2019-01-11T06:22:53.311Z,19.23
2019-01-11T06:25:19.834Z,20.40
2019-01-11T06:27:46.258Z,21.83
2019-01-11T06:30:13.377Z,20.00
2019-01-11T06:32:40.197Z,21.53
2019-01-11T06:35:06.783Z,21.57
2019-01-11T06:37:33.381Z,19.80
2019-01-11T06:40:00.026Z,21.40
2019-01-11T06:42:26.502Z,19.20
2019-01-11T06:44:53.368Z,20.53
2019-01-11T06:47:19.886Z,20.67
2019-01-11T06:49:46.282Z,20.33
2019-01-11T06:52:12.690Z,20.30
2019-01-11T06:54:39.032Z,20.70
2019-01-11T06:57:05.550Z,21.93
2019-01-11T06:59:32.392Z,22.57
2019-01-11T07:01:58.911Z,25.40
2019-01-11T07:04:25.282Z,21.80
2019-01-11T07:06:51.656Z,20.93
2019-01-11T07:09:17.941Z,22.07
2019-01-11T07:11:44.538Z,21.23
2019-01-11T07:14:11.170Z,21.30
2019-01-11T07:16:37.683Z,24.33
2019-01-11T07:19:04.178Z,24.37
2019-01-11T07:21:30.479Z,23.63
2019-01-11T07:23:57.029Z,23.70
2019-01-11T07:26:23.566Z,20.67
2019-01-11T07:28:50.054Z,22.10
2019-01-11T07:31:16.938Z,22.20
2019-01-11T07:33:43.431Z,22.93
2019-01-11T07:36:14.826Z,22.43
2019-01-11T07:38:41.392Z,23.03
2019-01-11T07:41:07.762Z,24.67
2019-01-11T07:43:34.166Z,23.40
2019-01-11T07:46:01.466Z,26.50
2019-01-11T07:48:27.883Z,27.27
2019-01-11T07:50:54.176Z,25.23
2019-01-11T07:53:20.671Z,24.93
2019-01-11T07:55:47.198Z,25.83
2019-01-11T07:58:13.697Z,26.50
2019-01-11T08:00:40.241Z,29.20
2019-01-11T08:03:06.731Z,27.40
2019-01-11T08:05:33.278Z,28.60
2019-01-11T08:07:59.679Z,29.17
2019-01-11T08:10:26.302Z,31.97
2019-01-11T08:12:52.723Z,31.13
2019-01-11T08:15:19.173Z,33.23
2019-01-11T08:17:45.585Z,31.60
2019-01-11T08:20:12.281Z,33.77
2019-01-11T08:22:43.132Z,32.20
2019-01-11T08:25:12.544Z,30.43
2019-01-11T08:27:39.106Z,31.37
2019-01-11T08:30:13.053Z,28.00
2019-01-11T08:32:39.551Z,30.83
2019-01-11T08:35:09.036Z,26.80
2019-01-11T08:37:36.236Z,30.60
2019-01-11T08:40:06.373Z,30.23
2019-01-11T08:42:32.971Z,31.00
2019-01-11T08:44:59.676Z,31.53
2019-01-11T08:47:26.187Z,30.47
2019-01-11T08:49:52.442Z,31.70
2019-01-11T08:52:18.947Z,31.83
2019-01-11T08:54:45.481Z,31.53
2019-01-11T08:57:11.956Z,34.40
2019-01-11T08:59:38.378Z,30.37
2019-01-11T09:02:04.862Z,36.33
2019-01-11T09:04:31.265Z,36.27
2019-01-11T09:06:57.778Z,35.17
2019-01-11T09:09:24.305Z,34.83
2019-01-11T09:11:50.677Z,33.80
2019-01-11T09:14:28.057Z,31.80
2019-01-11T09:16:54.582Z,34.40
2019-01-11T09:19:21.111Z,36.20
2019-01-11T09:21:47.613Z,34.30
2019-01-11T09:24:14.218Z,40.83
2019-01-11T09:26:40.607Z,35.70
2019-01-11T09:29:06.973Z,35.23
2019-01-11T09:31:33.438Z,39.37
2019-01-11T09:34:00.087Z,46.83
2019-01-11T09:36:26.698Z,42.27
2019-01-11T09:38:53.214Z,45.73
2019-01-11T09:41:19.704Z,46.00
2019-01-11T09:43:46.239Z,52.70
2019-01-11T09:46:12.807Z,55.00
2019-01-11T09:48:39.421Z,53.20
2019-01-11T09:51:06.183Z,47.77
2019-01-11T09:53:32.819Z,50.43
2019-01-11T09:55:59.469Z,55.50
2019-01-11T09:58:26.063Z,53.90
2019-01-11T10:00:58.997Z,53.77
2019-01-11T10:03:21.166Z,51.00
2019-01-11T10:05:47.672Z,52.07
2019-01-11T10:08:14.126Z,56.20
2019-01-11T10:10:40.618Z,53.50
2019-01-11T10:13:07.107Z,57.93
2019-01-11T10:15:33.722Z,58.17
2019-01-11T10:18:00.364Z,53.53
2019-01-11T10:20:26.982Z,61.47
2019-01-11T10:22:53.904Z,57.17
2019-01-11T10:25:20.711Z,57.70
2019-01-11T10:27:47.406Z,60.20
2019-01-11T10:30:19.512Z,62.13
2019-01-11T10:32:46.208Z,63.47
2019-01-11T10:35:13.092Z,59.00
2019-01-11T10:37:39.737Z,60.83
2019-01-11T10:40:13.437Z,64.53
2019-01-11T10:42:40.358Z,67.90
2019-01-11T10:45:15.018Z,68.63
2019-01-11T10:47:41.603Z,78.73
2019-01-11T10:50:15.333Z,89.93
2019-01-11T10:52:42.312Z,87.80
2019-01-11T10:55:12.126Z,86.50
2019-01-11T10:57:38.758Z,94.00
2019-01-11T11:00:10.907Z,89.57
2019-01-11T11:02:37.352Z,95.03
2019-01-11T11:05:04.917Z,102.17
2019-01-11T11:07:31.356Z,99.77
2019-01-11T11:09:58.859Z,107.90
2019-01-11T11:12:25.361Z,107.43
2019-01-11T11:14:51.768Z,109.57
2019-01-11T11:17:18.334Z,103.13
2019-01-11T11:19:44.757Z,110.90
2019-01-11T11:22:11.276Z,110.17
2019-01-11T11:24:37.807Z,114.20
2019-01-11T11:27:05.293Z,118.47
2019-01-11T11:29:31.821Z,105.47
2019-01-11T11:31:58.334Z,104.63
2019-01-11T11:34:25.131Z,125.83
2019-01-11T11:36:51.658Z,112.10
2019-01-11T11:39:18.438Z,122.67
2019-01-11T11:41:44.856Z,132.87
2019-01-11T11:44:11.447Z,130.20
2019-01-11T11:46:37.919Z,133.47
2019-01-11T11:49:04.508Z,127.73
2019-01-11T11:51:31.122Z,117.73
2019-01-11T11:53:57.657Z,117.23
2019-01-11T11:56:24.350Z,119.20
2019-01-11T11:58:50.967Z,123.03
2019-01-11T12:01:17.519Z,130.37
2019-01-11T12:03:44.262Z,133.77
2019-01-11T12:06:10.803Z,135.90
2019-01-11T12:08:37.333Z,133.87
2019-01-11T12:11:03.982Z,126.93
2019-01-11T12:13:34.429Z,135.10
2019-01-11T12:15:59.017Z,124.60
2019-01-11T12:18:25.651Z,135.30
2019-01-11T12:20:52.257Z,129.90
2019-01-11T12:23:18.882Z,112.17
2019-01-11T12:25:45.577Z,125.93
2019-01-11T12:28:12.084Z,109.73
2019-01-11T12:30:38.705Z,105.77
2019-01-11T12:33:05.175Z,101.60
2019-01-11T12:35:31.755Z,103.57
2019-01-11T12:37:58.213Z,101.50
2019-01-11T12:40:24.727Z,112.43
2019-01-11T12:42:51.353Z,99.33
2019-01-11T12:45:18.071Z,108.00
2019-01-11T12:47:44.725Z,115.57
2019-01-11T12:50:18.701Z,104.50
2019-01-11T12:52:45.386Z,102.40
2019-01-11T12:55:11.957Z,103.93
2019-01-11T12:57:38.550Z,110.60
2019-01-11T13:00:10.380Z,107.33
2019-01-11T13:02:36.923Z,104.73
2019-01-11T13:05:07.299Z,115.53
2019-01-11T13:07:33.944Z,101.23
2019-01-11T13:10:00.655Z,105.00
2019-01-11T13:12:27.258Z,94.57
2019-01-11T13:14:53.787Z,80.57
2019-01-11T13:17:20.408Z,88.67
2019-01-11T13:19:46.918Z,81.00
2019-01-11T13:22:13.569Z,91.93
2019-01-11T13:24:40.125Z,92.03
2019-01-11T13:27:06.784Z,88.80
2019-01-11T13:29:33.439Z,86.37
2019-01-11T13:32:00.218Z,73.27
2019-01-11T13:34:26.906Z,81.33
2019-01-11T13:36:53.967Z,76.87
2019-01-11T13:39:20.624Z,72.80
2019-01-11T13:41:47.447Z,69.70
2019-01-11T13:44:14.101Z,66.90
2019-01-11T13:46:40.754Z,71.03
2019-01-11T13:49:07.505Z,66.60
2019-01-11T13:51:34.074Z,65.50
2019-01-11T13:54:00.698Z,56.97
2019-01-11T13:56:27.269Z,56.50
2019-01-11T13:58:54.024Z,56.07
2019-01-11T14:01:20.576Z,47.10
2019-01-11T14:03:47.094Z,42.63
2019-01-11T14:06:13.709Z,48.03
2019-01-11T14:08:40.315Z,38.43
2019-01-11T14:11:06.947Z,34.27
2019-01-11T14:13:33.714Z,29.60
2019-01-11T14:16:00.266Z,27.50
2019-01-11T14:18:26.921Z,34.20
2019-01-11T14:20:53.541Z,27.43
2019-01-11T14:23:20.284Z,26.93
2019-01-11T14:25:46.904Z,30.70
2019-01-11T14:28:13.695Z,23.43
2019-01-11T14:30:41.115Z,28.73
2019-01-11T14:33:07.770Z,24.90
2019-01-11T14:35:34.305Z,16.83
2019-01-11T14:38:00.957Z,22.37
2019-01-11T14:40:27.575Z,18.40
2019-01-11T14:42:54.005Z,22.70
2019-01-11T14:45:20.565Z,15.67
2019-01-11T14:47:47.248Z,18.17
2019-01-11T14:50:18.337Z,17.17
2019-01-11T14:52:46.373Z,19.47
2019-01-11T14:55:13.018Z,19.43
2019-01-11T14:57:39.987Z,16.33
2019-01-11T15:00:11.506Z,18.73
2019-01-11T15:02:38.238Z,17.10
2019-01-11T15:05:07.882Z,13.63
2019-01-11T15:07:34.528Z,16.33
2019-01-11T15:10:01.144Z,13.97
2019-01-11T15:12:27.726Z,17.30
2019-01-11T15:14:54.436Z,13.97
2019-01-11T15:17:20.953Z,15.00
2019-01-11T15:19:48.568Z,15.03
2019-01-11T15:22:15.329Z,17.27
2019-01-11T15:24:41.800Z,19.20
2019-01-11T15:27:08.259Z,13.33
2019-01-11T15:29:34.894Z,16.47
2019-01-11T15:32:01.540Z,15.17
2019-01-11T15:34:29.988Z,14.13
2019-01-11T15:36:56.750Z,15.97
2019-01-11T15:39:23.333Z,12.60
2019-01-11T15:41:50.117Z,13.60
2019-01-11T15:44:16.706Z,15.47
2019-01-11T15:46:43.419Z,15.50
2019-01-11T15:49:09.742Z,11.40
2019-01-11T15:51:36.471Z,16.10
2019-01-11T15:54:03.569Z,11.73
2019-01-11T15:56:30.435Z,13.17
2019-01-11T15:58:57.117Z,11.70
2019-01-11T16:01:23.753Z,12.03
2019-01-11T16:03:51.603Z,15.07
2019-01-11T16:06:27.399Z,14.10
2019-01-11T16:09:11.542Z,16.10
2019-01-11T16:11:58.611Z,16.57
2019-01-11T16:14:58.179Z,15.63
2019-01-11T16:17:29.521Z,13.37
2019-01-11T16:19:55.951Z,13.37
2019-01-11T16:22:22.635Z,15.27
2019-01-11T16:24:49.396Z,14.90
2019-01-11T16:27:15.997Z,14.10
2019-01-11T16:29:42.702Z,11.67
2019-01-11T16:32:09.290Z,15.03
2019-01-11T16:34:35.890Z,14.63
2019-01-11T16:37:02.637Z,12.27
2019-01-11T16:39:29.260Z,14.33
2019-01-11T16:41:55.864Z,14.00
2019-01-11T16:44:22.415Z,15.13
2019-01-11T16:46:49.245Z,15.87
2019-01-11T16:49:15.805Z,13.07
2019-01-11T16:51:42.397Z,15.13
2019-01-11T16:54:09.033Z,15.10
2019-01-11T16:56:35.670Z,13.93
2019-01-11T16:59:02.351Z,13.53
2019-01-11T17:01:29.029Z,13.23
2019-01-11T17:03:55.675Z,15.97
2019-01-11T17:06:22.431Z,15.93
2019-01-11T17:08:49.231Z,14.40
2019-01-11T17:11:15.826Z,13.33
2019-01-11T17:13:42.401Z,11.00
2019-01-11T17:16:09.012Z,13.37
2019-01-11T17:18:35.773Z,11.77
2019-01-11T17:21:02.589Z,14.40
2019-01-11T17:23:29.393Z,10.30
2019-01-11T17:25:56.010Z,11.77
2019-01-11T17:28:22.741Z,10.60
2019-01-11T17:30:49.529Z,12.67
2019-01-11T17:33:16.257Z,10.17
2019-01-11T17:35:42.944Z,10.30
2019-01-11T17:38:09.697Z,11.93
2019-01-11T17:40:36.481Z,11.47
2019-01-11T17:43:03.439Z,13.63
2019-01-11T17:45:30.210Z,11.93
2019-01-11T17:47:56.826Z,9.50
2019-01-11T17:50:23.606Z,13.07
2019-01-11T17:52:50.261Z,12.30
2019-01-11T17:55:16.956Z,10.07
2019-01-11T17:57:43.830Z,12.87
2019-01-11T18:00:13.914Z,14.67
2019-01-11T18:02:40.530Z,11.27
2019-01-11T18:05:10.276Z,11.70
2019-01-11T18:07:36.803Z,11.17
2019-01-11T18:10:06.909Z,14.47
2019-01-11T18:12:33.478Z,11.20
2019-01-11T18:15:00.190Z,15.80
2019-01-11T18:17:26.952Z,16.07
2019-01-11T18:19:53.607Z,13.03
2019-01-11T18:22:20.477Z,15.60
2019-01-11T18:24:47.278Z,13.17
2019-01-11T18:27:13.966Z,14.80
2019-01-11T18:29:40.701Z,14.37
2019-01-11T18:32:07.499Z,13.97
2019-01-11T18:34:34.149Z,17.47
2019-01-11T18:37:00.878Z,11.03
2019-01-11T18:39:27.591Z,13.60
2019-01-11T18:41:54.390Z,15.87
2019-01-11T18:44:21.044Z,17.37
2019-01-11T18:46:47.666Z,18.13
2019-01-11T18:49:14.426Z,12.03
2019-01-11T18:51:41.179Z,12.57
2019-01-11T18:54:07.931Z,15.97
2019-01-11T18:56:34.622Z,17.97
2019-01-11T18:59:01.430Z,16.43
2019-01-11T19:01:28.279Z,14.40
2019-01-11T19:03:55.213Z,11.70
2019-01-11T19:06:21.649Z,16.13
2019-01-11T19:08:48.245Z,15.50
2019-01-11T19:11:14.949Z,16.23
2019-01-11T19:13:41.594Z,12.77
2019-01-11T19:16:08.453Z,13.87
2019-01-11T19:18:35.299Z,14.93
2019-01-11T19:21:02.075Z,12.47
2019-01-11T19:23:28.831Z,14.03
2019-01-11T19:25:55.488Z,15.47
2019-01-11T19:28:22.129Z,16.33
2019-01-11T19:30:49.670Z,12.43
2019-01-11T19:33:16.627Z,16.63
2019-01-11T19:35:43.320Z,15.30
2019-01-11T19:38:10.281Z,15.13
2019-01-11T19:40:36.751Z,13.23
2019-01-11T19:43:03.554Z,14.20
2019-01-11T19:45:30.246Z,15.43
2019-01-11T19:47:56.900Z,13.50
2019-01-11T19:50:23.994Z,12.70
2019-01-11T19:52:50.646Z,13.70
2019-01-11T19:55:17.935Z,14.10
2019-01-11T19:57:44.679Z,13.30
2019-01-11T20:00:21.424Z,11.23
2019-01-11T20:02:48.305Z,11.73
2019-01-11T20:05:15.710Z,15.67
2019-01-11T20:07:42.639Z,12.77
2019-01-11T20:10:23.245Z,12.00
2019-01-11T20:12:49.910Z,14.00
2019-01-11T20:15:16.864Z,12.00
2019-01-11T20:17:43.616Z,14.97
2019-01-11T20:20:13.002Z,17.03
2019-01-11T20:22:39.664Z,16.63
2019-01-11T20:25:11.834Z,15.77
2019-01-11T20:27:38.496Z,12.77
2019-01-11T20:30:15.487Z,15.87
2019-01-11T20:32:42.380Z,15.70
2019-01-11T20:35:09.205Z,11.80
2019-01-11T20:37:35.959Z,12.47
2019-01-11T20:40:07.775Z,12.03
2019-01-11T20:42:34.444Z,11.63
2019-01-11T20:45:01.162Z,12.30
2019-01-11T20:47:27.790Z,10.63
2019-01-11T20:49:54.519Z,10.07
2019-01-11T20:52:21.179Z,11.60
2019-01-11T20:54:47.887Z,10.43
2019-01-11T20:57:14.499Z,12.30
2019-01-11T20:59:41.187Z,11.63
2019-01-11T21:02:07.957Z,9.57
2019-01-11T21:04:34.732Z,9.83
2019-01-11T21:07:01.520Z,10.97
2019-01-11T21:09:27.998Z,9.80
2019-01-11T21:11:54.792Z,12.33
2019-01-11T21:14:21.412Z,15.00
2019-01-11T21:16:48.156Z,10.70
2019-01-11T21:19:15.076Z,11.40
2019-01-11T21:21:41.739Z,12.67
2019-01-11T21:24:08.512Z,12.23
2019-01-11T21:26:35.169Z,12.23
2019-01-11T21:29:01.799Z,14.87
2019-01-11T21:31:28.590Z,11.50
2019-01-11T21:33:55.141Z,11.40
2019-01-11T21:36:21.834Z,14.80
2019-01-11T21:38:48.644Z,11.47
2019-01-11T21:41:15.464Z,13.90
2019-01-11T21:43:42.419Z,11.93
2019-01-11T21:46:09.134Z,13.37
2019-01-11T21:48:35.850Z,11.63
2019-01-11T21:51:02.584Z,11.47
2019-01-11T21:53:29.232Z,10.57
2019-01-11T21:55:55.928Z,10.70
2019-01-11T21:58:22.565Z,13.00
2019-01-11T22:00:49.191Z,13.83
2019-01-11T22:03:15.956Z,14.97
2019-01-11T22:05:42.626Z,12.20
2019-01-11T22:08:09.422Z,12.00
2019-01-11T22:10:36.109Z,9.50
2019-01-11T22:13:02.980Z,12.20
2019-01-11T22:15:29.601Z,9.93
2019-01-11T22:17:56.497Z,13.97
2019-01-11T22:20:23.237Z,9.00
2019-01-11T22:22:49.765Z,9.63
2019-01-11T22:25:17.740Z,11.73
2019-01-11T22:27:44.588Z,9.20
2019-01-11T22:30:17.559Z,13.07
2019-01-11T22:32:44.365Z,7.03
2019-01-11T22:35:11.423Z,7.70
2019-01-11T22:37:38.181Z,15.67
2019-01-11T22:40:18.157Z,5.93
2019-01-11T22:42:45.257Z,9.83
2019-01-11T22:45:13.999Z,8.50
2019-01-11T22:47:40.873Z,8.43
2019-01-11T22:50:11.121Z,10.07
2019-01-11T22:52:37.903Z,11.00
2019-01-11T22:55:07.920Z,7.83
2019-01-11T22:57:34.623Z,7.83
2019-01-11T23:00:01.229Z,7.57
2019-01-11T23:02:32.460Z,8.20
2019-01-11T23:04:59.214Z,10.83
2019-01-11T23:07:29.037Z,10.73
2019-01-11T23:09:55.652Z,13.67
2019-01-11T23:12:33.795Z,8.37
2019-01-11T23:15:00.438Z,9.60
2019-01-11T23:17:35.479Z,8.33
2019-01-11T23:20:05.379Z,12.07
2019-01-11T23:22:31.897Z,7.30
2019-01-11T23:24:58.465Z,6.10
2019-01-11T23:27:24.930Z,9.57
2019-01-11T23:29:51.721Z,11.73
2019-01-11T23:32:18.234Z,6.37
2019-01-11T23:34:44.946Z,12.60
2019-01-11T23:37:11.388Z,9.77
2019-01-11T23:39:38.008Z,8.73
2019-01-11T23:42:04.670Z,13.60
2019-01-11T23:44:31.612Z,10.50
2019-01-11T23:46:58.126Z,9.13
2019-01-11T23:49:24.815Z,12.73
2019-01-11T23:51:51.281Z,13.83
2019-01-11T23:54:24.343Z,12.80
2019-01-11T23:56:46.349Z,14.03
2019-01-11T23:59:12.937Z,12.80
